sensor_id;sensor_type;location;lat;lon;timestamp;pressure;altitude;pressure_sealevel;temperature;humidity
73383;BME280;61600;48.126;11.542;2023-04-06T00:00:48;95835.88;;;4.65;48.72
73383;BME280;61600;48.126;11.542;2023-04-06T00:03:14;95831.31;;;4.66;48.74
73383;BME280;61600;48.126;11.542;2023-04-06T00:05:40;95827.75;;;4.60;49.19
73383;BME280;61600;48.126;11.542;2023-04-06T00:08:06;95822.19;;;4.50;49.36
73383;BME280;61600;48.126;11.542;2023-04-06T00:10:31;95828.13;;;4.52;49.83
73383;BME280;61600;48.126;11.542;2023-04-06T00:12:58;95821.50;;;4.43;49.94
73383;BME280;61600;48.126;11.542;2023-04-06T00:15:24;95821.84;;;4.46;50.29
73383;BME280;61600;48.126;11.542;2023-04-06T00:17:50;95822.56;;;4.42;49.92
73383;BME280;61600;48.126;11.542;2023-04-06T00:20:17;95823.13;;;4.44;50.63
73383;BME280;61600;48.126;11.542;2023-04-06T00:22:43;95816.03;;;4.38;50.56
73383;BME280;61600;48.126;11.542;2023-04-06T00:25:09;95822.72;;;4.35;50.66
73383;BME280;61600;48.126;11.542;2023-04-06T00:27:38;95820.59;;;4.37;50.75
73383;BME280;61600;48.126;11.542;2023-04-06T00:30:05;95824.34;;;4.36;51.03
73383;BME280;61600;48.126;11.542;2023-04-06T00:32:31;95816.59;;;4.40;51.22
73383;BME280;61600;48.126;11.542;2023-04-06T00:34:58;95816.59;;;4.40;51.33
73383;BME280;61600;48.126;11.542;2023-04-06T00:37:24;95825.16;;;4.37;51.46
73383;BME280;61600;48.126;11.542;2023-04-06T00:39:49;95824.34;;;4.36;51.41
73383;BME280;61600;48.126;11.542;2023-04-06T00:42:17;95818.38;;;4.34;51.59
73383;BME280;61600;48.126;11.542;2023-04-06T00:44:52;95823.91;;;4.28;51.57
73383;BME280;61600;48.126;11.542;2023-04-06T00:47:18;95818.28;;;4.29;51.68
73383;BME280;61600;48.126;11.542;2023-04-06T00:49:44;95821.41;;;4.10;52.35
73383;BME280;61600;48.126;11.542;2023-04-06T00:52:09;95830.13;;;4.00;52.81
73383;BME280;61600;48.126;11.542;2023-04-06T00:54:35;95824.75;;;4.00;52.87
73383;BME280;61600;48.126;11.542;2023-04-06T00:57:02;95818.06;;;4.02;52.86
73383;BME280;61600;48.126;11.542;2023-04-06T00:59:28;95822.25;;;4.10;52.54
73383;BME280;61600;48.126;11.542;2023-04-06T01:01:54;95818.41;;;4.06;52.65
73383;BME280;61600;48.126;11.542;2023-04-06T01:04:20;95821.34;;;4.05;52.46
73383;BME280;61600;48.126;11.542;2023-04-06T01:06:49;95826.38;;;4.01;52.63
73383;BME280;61600;48.126;11.542;2023-04-06T01:09:15;95825.56;;;4.00;52.73
73383;BME280;61600;48.126;11.542;2023-04-06T01:11:41;95828.00;;;4.02;52.95
73383;BME280;61600;48.126;11.542;2023-04-06T01:14:06;95826.84;;;3.98;53.27
73383;BME280;61600;48.126;11.542;2023-04-06T01:16:35;95824.22;;;3.86;53.50
73383;BME280;61600;48.126;11.542;2023-04-06T01:19:10;95821.06;;;3.78;54.01
73383;BME280;61600;48.126;11.542;2023-04-06T01:21:37;95825.03;;;3.87;53.83
73383;BME280;61600;48.126;11.542;2023-04-06T01:24:03;95821.75;;;3.85;53.73
73383;BME280;61600;48.126;11.542;2023-04-06T01:26:29;95814.00;;;3.88;53.97
73383;BME280;61600;48.126;11.542;2023-04-06T01:28:55;95819.16;;;3.90;53.99
73383;BME280;61600;48.126;11.542;2023-04-06T01:31:22;95820.34;;;3.82;54.10
73383;BME280;61600;48.126;11.542;2023-04-06T01:33:48;95811.47;;;3.82;54.23
73383;BME280;61600;48.126;11.542;2023-04-06T01:36:14;95812.31;;;3.71;54.00
73383;BME280;61600;48.126;11.542;2023-04-06T01:38:40;95816.44;;;3.62;55.00
73383;BME280;61600;48.126;11.542;2023-04-06T01:41:07;95808.72;;;3.53;55.24
73383;BME280;61600;48.126;11.542;2023-04-06T01:43:33;95809.22;;;3.50;55.64
73383;BME280;61600;48.126;11.542;2023-04-06T01:45:59;95815.53;;;3.44;55.74
73383;BME280;61600;48.126;11.542;2023-04-06T01:48:25;95806.06;;;3.42;55.60
73383;BME280;61600;48.126;11.542;2023-04-06T01:50:51;95810.63;;;3.41;55.45
73383;BME280;61600;48.126;11.542;2023-04-06T01:53:17;95793.34;;;3.26;55.73
73383;BME280;61600;48.126;11.542;2023-04-06T01:55:43;95796.25;;;3.36;55.65
73383;BME280;61600;48.126;11.542;2023-04-06T01:58:08;95798.13;;;3.35;55.86
73383;BME280;61600;48.126;11.542;2023-04-06T02:00:35;95804.53;;;3.34;55.82
73383;BME280;61600;48.126;11.542;2023-04-06T02:03:00;95801.41;;;3.37;55.63
73383;BME280;61600;48.126;11.542;2023-04-06T02:05:27;95807.84;;;3.36;55.41
73383;BME280;61600;48.126;11.542;2023-04-06T02:07:53;95804.78;;;3.44;55.54
73383;BME280;61600;48.126;11.542;2023-04-06T02:10:19;95798.81;;;3.54;55.14
73383;BME280;61600;48.126;11.542;2023-04-06T02:12:45;95804.06;;;3.49;55.13
73383;BME280;61600;48.126;11.542;2023-04-06T02:15:11;95795.44;;;3.47;55.36
73383;BME280;61600;48.126;11.542;2023-04-06T02:17:39;95797.28;;;3.46;55.14
73383;BME280;61600;48.126;11.542;2023-04-06T02:20:05;95796.00;;;3.49;55.37
73383;BME280;61600;48.126;11.542;2023-04-06T02:22:31;95794.25;;;3.55;55.50
73383;BME280;61600;48.126;11.542;2023-04-06T02:24:57;95796.53;;;3.63;54.28
73383;BME280;61600;48.126;11.542;2023-04-06T02:27:23;95801.00;;;3.69;54.59
73383;BME280;61600;48.126;11.542;2023-04-06T02:29:49;95795.13;;;3.72;54.19
73383;BME280;61600;48.126;11.542;2023-04-06T02:32:15;95791.38;;;3.73;54.08
73383;BME280;61600;48.126;11.542;2023-04-06T02:34:41;95796.78;;;3.73;54.10
73383;BME280;61600;48.126;11.542;2023-04-06T02:37:07;95793.81;;;3.74;53.67
73383;BME280;61600;48.126;11.542;2023-04-06T02:39:32;95795.00;;;3.78;53.67
73383;BME280;61600;48.126;11.542;2023-04-06T02:42:04;95797.13;;;3.76;53.41
73383;BME280;61600;48.126;11.542;2023-04-06T02:44:30;95799.53;;;3.78;52.38
73383;BME280;61600;48.126;11.542;2023-04-06T02:46:56;95797.34;;;3.75;51.90
73383;BME280;61600;48.126;11.542;2023-04-06T02:49:22;95794.44;;;3.65;51.62
73383;BME280;61600;48.126;11.542;2023-04-06T02:51:48;95791.16;;;3.63;51.73
73383;BME280;61600;48.126;11.542;2023-04-06T02:54:13;95784.31;;;3.55;52.28
73383;BME280;61600;48.126;11.542;2023-04-06T02:56:39;95781.63;;;3.55;51.91
73383;BME280;61600;48.126;11.542;2023-04-06T02:59:05;95787.09;;;3.48;52.46
73383;BME280;61600;48.126;11.542;2023-04-06T03:01:31;95780.81;;;3.55;52.42
73383;BME280;61600;48.126;11.542;2023-04-06T03:03:57;95774.47;;;3.61;52.13
73383;BME280;61600;48.126;11.542;2023-04-06T03:06:25;95788.25;;;3.64;52.11
73383;BME280;61600;48.126;11.542;2023-04-06T03:08:52;95785.56;;;3.64;51.95
73383;BME280;61600;48.126;11.542;2023-04-06T03:11:17;95778.19;;;3.60;51.91
73383;BME280;61600;48.126;11.542;2023-04-06T03:13:44;95786.91;;;3.38;53.13
73383;BME280;61600;48.126;11.542;2023-04-06T03:16:10;95785.50;;;3.47;52.80
73383;BME280;61600;48.126;11.542;2023-04-06T03:18:35;95796.34;;;3.52;52.66
73383;BME280;61600;48.126;11.542;2023-04-06T03:21:01;95788.06;;;3.42;52.04
73383;BME280;61600;48.126;11.542;2023-04-06T03:23:27;95787.28;;;3.30;53.35
73383;BME280;61600;48.126;11.542;2023-04-06T03:25:53;95785.38;;;3.42;53.29
73383;BME280;61600;48.126;11.542;2023-04-06T03:28:18;95794.00;;;3.56;53.25
73383;BME280;61600;48.126;11.542;2023-04-06T03:30:45;95785.97;;;3.44;53.75
73383;BME280;61600;48.126;11.542;2023-04-06T03:33:11;95788.19;;;3.24;54.61
73383;BME280;61600;48.126;11.542;2023-04-06T03:35:36;95789.28;;;3.23;54.60
73383;BME280;61600;48.126;11.542;2023-04-06T03:38:03;95796.25;;;3.24;54.52
73383;BME280;61600;48.126;11.542;2023-04-06T03:40:30;95791.00;;;3.41;53.85
73383;BME280;61600;48.126;11.542;2023-04-06T03:42:56;95798.00;;;3.42;53.76
73383;BME280;61600;48.126;11.542;2023-04-06T03:45:21;95791.78;;;3.41;53.92
73383;BME280;61600;48.126;11.542;2023-04-06T03:47:50;95796.38;;;3.29;54.47
73383;BME280;61600;48.126;11.542;2023-04-06T03:50:16;95794.28;;;3.31;54.34
73383;BME280;61600;48.126;11.542;2023-04-06T03:52:42;95802.00;;;3.28;54.37
73383;BME280;61600;48.126;11.542;2023-04-06T03:55:10;95805.03;;;3.31;53.93
73383;BME280;61600;48.126;11.542;2023-04-06T03:57:36;95809.81;;;3.41;53.74
73383;BME280;61600;48.126;11.542;2023-04-06T04:00:06;95801.75;;;3.41;53.61
73383;BME280;61600;48.126;11.542;2023-04-06T04:02:32;95808.09;;;3.23;54.10
73383;BME280;61600;48.126;11.542;2023-04-06T04:04:57;95800.13;;;3.28;53.59
73383;BME280;61600;48.126;11.542;2023-04-06T04:07:23;95805.63;;;3.33;53.46
73383;BME280;61600;48.126;11.542;2023-04-06T04:09:52;95806.44;;;3.34;53.31
73383;BME280;61600;48.126;11.542;2023-04-06T04:12:18;95812.59;;;3.34;53.20
73383;BME280;61600;48.126;11.542;2023-04-06T04:14:44;95812.59;;;3.34;53.25
73383;BME280;61600;48.126;11.542;2023-04-06T04:17:09;95817.53;;;3.26;53.67
73383;BME280;61600;48.126;11.542;2023-04-06T04:19:38;95814.59;;;3.27;53.87
73383;BME280;61600;48.126;11.542;2023-04-06T04:22:03;95823.75;;;3.26;53.55
73383;BME280;61600;48.126;11.542;2023-04-06T04:24:32;95813.13;;;3.20;53.78
73383;BME280;61600;48.126;11.542;2023-04-06T04:26:59;95817.91;;;3.29;53.59
73383;BME280;61600;48.126;11.542;2023-04-06T04:29:29;95817.19;;;3.11;54.15
73383;BME280;61600;48.126;11.542;2023-04-06T04:31:55;95816.72;;;3.14;54.47
73383;BME280;61600;48.126;11.542;2023-04-06T04:34:21;95816.84;;;3.19;54.00
73383;BME280;61600;48.126;11.542;2023-04-06T04:36:49;95813.91;;;3.20;54.06
73383;BME280;61600;48.126;11.542;2023-04-06T04:39:15;95823.97;;;3.13;54.79
73383;BME280;61600;48.126;11.542;2023-04-06T04:41:40;95824.31;;;3.17;54.51
73383;BME280;61600;48.126;11.542;2023-04-06T04:44:06;95822.22;;;3.19;54.78
73383;BME280;61600;48.126;11.542;2023-04-06T04:46:32;95827.59;;;3.19;54.86
73383;BME280;61600;48.126;11.542;2023-04-06T04:48:58;95826.06;;;3.11;54.76
73383;BME280;61600;48.126;11.542;2023-04-06T04:51:24;95823.03;;;3.08;55.00
73383;BME280;61600;48.126;11.542;2023-04-06T04:53:53;95826.22;;;3.16;55.33
73383;BME280;61600;48.126;11.542;2023-04-06T04:56:19;95822.31;;;3.24;55.23
73383;BME280;61600;48.126;11.542;2023-04-06T04:58:45;95831.06;;;3.31;54.73
73383;BME280;61600;48.126;11.542;2023-04-06T05:01:10;95826.53;;;3.31;54.55
73383;BME280;61600;48.126;11.542;2023-04-06T05:03:36;95827.25;;;3.27;54.59
73383;BME280;61600;48.126;11.542;2023-04-06T05:06:04;95828.28;;;3.26;54.69
73383;BME280;61600;48.126;11.542;2023-04-06T05:08:31;95820.22;;;3.26;54.90
73383;BME280;61600;48.126;11.542;2023-04-06T05:10:57;95823.50;;;3.28;54.44
73383;BME280;61600;48.126;11.542;2023-04-06T05:13:23;95821.75;;;3.22;54.78
73383;BME280;61600;48.126;11.542;2023-04-06T05:15:49;95824.22;;;3.23;54.62
73383;BME280;61600;48.126;11.542;2023-04-06T05:18:15;95821.16;;;3.31;54.90
73383;BME280;61600;48.126;11.542;2023-04-06T05:20:42;95824.19;;;3.35;54.58
73383;BME280;61600;48.126;11.542;2023-04-06T05:23:07;95825.34;;;3.39;54.33
73383;BME280;61600;48.126;11.542;2023-04-06T05:25:33;95816.25;;;3.40;54.50
73383;BME280;61600;48.126;11.542;2023-04-06T05:27:59;95827.69;;;3.47;54.00
73383;BME280;61600;48.126;11.542;2023-04-06T05:30:25;95831.78;;;3.49;54.09
73383;BME280;61600;48.126;11.542;2023-04-06T05:32:51;95824.03;;;3.53;54.29
73383;BME280;61600;48.126;11.542;2023-04-06T05:35:17;95832.47;;;3.57;54.13
73383;BME280;61600;48.126;11.542;2023-04-06T05:37:43;95816.09;;;3.58;54.05
73383;BME280;61600;48.126;11.542;2023-04-06T05:40:09;95824.25;;;3.63;54.07
73383;BME280;61600;48.126;11.542;2023-04-06T05:42:39;95834.19;;;3.63;53.80
73383;BME280;61600;48.126;11.542;2023-04-06T05:45:08;95833.75;;;3.66;54.11
73383;BME280;61600;48.126;11.542;2023-04-06T05:47:34;95832.44;;;3.68;54.04
73383;BME280;61600;48.126;11.542;2023-04-06T05:50:00;95826.94;;;3.63;54.28
73383;BME280;61600;48.126;11.542;2023-04-06T05:52:26;95831.13;;;3.71;54.08
73383;BME280;61600;48.126;11.542;2023-04-06T05:54:52;95835.00;;;3.75;53.91
73383;BME280;61600;48.126;11.542;2023-04-06T05:57:18;95834.38;;;3.84;53.70
73383;BME280;61600;48.126;11.542;2023-04-06T05:59:44;95835.66;;;3.93;53.68
73383;BME280;61600;48.126;11.542;2023-04-06T06:02:09;95833.19;;;3.92;53.67
73383;BME280;61600;48.126;11.542;2023-04-06T06:04:35;95836.56;;;3.99;53.66
73383;BME280;61600;48.126;11.542;2023-04-06T06:07:01;95832.66;;;4.07;53.53
73383;BME280;61600;48.126;11.542;2023-04-06T06:09:27;95829.34;;;4.16;53.35
73383;BME280;61600;48.126;11.542;2023-04-06T06:11:53;95831.88;;;4.23;53.71
73383;BME280;61600;48.126;11.542;2023-04-06T06:14:19;95828.66;;;4.37;53.17
73383;BME280;61600;48.126;11.542;2023-04-06T06:16:45;95833.34;;;4.42;53.12
73383;BME280;61600;48.126;11.542;2023-04-06T06:19:11;95824.28;;;4.48;52.90
73383;BME280;61600;48.126;11.542;2023-04-06T06:21:40;95826.81;;;4.54;52.59
73383;BME280;61600;48.126;11.542;2023-04-06T06:24:07;95830.28;;;4.67;52.06
73383;BME280;61600;48.126;11.542;2023-04-06T06:26:33;95829.28;;;4.73;52.00
73383;BME280;61600;48.126;11.542;2023-04-06T06:29:01;95823.25;;;4.82;51.36
73383;BME280;61600;48.126;11.542;2023-04-06T06:31:26;95828.72;;;4.87;51.50
73383;BME280;61600;48.126;11.542;2023-04-06T06:33:52;95829.94;;;4.96;51.50
73383;BME280;61600;48.126;11.542;2023-04-06T06:36:18;95823.81;;;5.01;51.12
73383;BME280;61600;48.126;11.542;2023-04-06T06:38:44;95828.31;;;5.12;50.98
73383;BME280;61600;48.126;11.542;2023-04-06T06:41:10;95827.91;;;5.03;50.81
73383;BME280;61600;48.126;11.542;2023-04-06T06:43:36;95830.44;;;5.10;50.47
73383;BME280;61600;48.126;11.542;2023-04-06T06:46:05;95829.44;;;5.16;50.26
73383;BME280;61600;48.126;11.542;2023-04-06T06:48:31;95832.53;;;5.25;49.69
73383;BME280;61600;48.126;11.542;2023-04-06T06:50:57;95835.13;;;5.36;49.63
73383;BME280;61600;48.126;11.542;2023-04-06T06:53:23;95830.38;;;5.43;48.92
73383;BME280;61600;48.126;11.542;2023-04-06T06:55:49;95829.38;;;5.66;48.42
73383;BME280;61600;48.126;11.542;2023-04-06T06:58:17;95835.25;;;5.85;48.10
73383;BME280;61600;48.126;11.542;2023-04-06T07:00:43;95832.47;;;5.96;48.13
73383;BME280;61600;48.126;11.542;2023-04-06T07:03:11;95834.34;;;6.18;47.33
73383;BME280;61600;48.126;11.542;2023-04-06T07:05:37;95829.97;;;6.38;46.90
73383;BME280;61600;48.126;11.542;2023-04-06T07:08:04;95825.56;;;6.54;45.86
73383;BME280;61600;48.126;11.542;2023-04-06T07:10:30;95828.88;;;6.61;45.95
73383;BME280;61600;48.126;11.542;2023-04-06T07:12:56;95827.91;;;6.77;45.78
73383;BME280;61600;48.126;11.542;2023-04-06T07:15:22;95828.13;;;6.71;45.46
73383;BME280;61600;48.126;11.542;2023-04-06T07:17:48;95846.03;;;6.77;45.38
73383;BME280;61600;48.126;11.542;2023-04-06T07:20:14;95834.78;;;6.90;44.95
73383;BME280;61600;48.126;11.542;2023-04-06T07:22:43;95843.25;;;6.98;45.12
73383;BME280;61600;48.126;11.542;2023-04-06T07:25:10;95838.44;;;7.06;44.92
73383;BME280;61600;48.126;11.542;2023-04-06T07:27:35;95836.03;;;7.09;45.13
73383;BME280;61600;48.126;11.542;2023-04-06T07:30:04;95840.41;;;7.15;44.03
73383;BME280;61600;48.126;11.542;2023-04-06T07:32:33;95843.38;;;7.14;44.26
73383;BME280;61600;48.126;11.542;2023-04-06T07:35:01;95845.63;;;7.27;44.19
73383;BME280;61600;48.126;11.542;2023-04-06T07:37:27;95846.47;;;7.27;44.10
73383;BME280;61600;48.126;11.542;2023-04-06T07:39:53;95846.22;;;7.34;43.51
73383;BME280;61600;48.126;11.542;2023-04-06T07:42:18;95841.63;;;7.34;43.51
73383;BME280;61600;48.126;11.542;2023-04-06T07:44:44;95845.94;;;7.30;43.29
73383;BME280;61600;48.126;11.542;2023-04-06T07:47:11;95844.94;;;7.46;42.75
73383;BME280;61600;48.126;11.542;2023-04-06T07:49:36;95847.19;;;7.54;42.70
73383;BME280;61600;48.126;11.542;2023-04-06T07:52:04;95839.25;;;7.43;42.77
73383;BME280;61600;48.126;11.542;2023-04-06T07:54:30;95834.13;;;7.46;42.80
73383;BME280;61600;48.126;11.542;2023-04-06T07:56:56;95838.47;;;7.47;43.03
73383;BME280;61600;48.126;11.542;2023-04-06T07:59:22;95830.13;;;7.54;42.50
73383;BME280;61600;48.126;11.542;2023-04-06T08:01:47;95832.94;;;7.69;41.65
73383;BME280;61600;48.126;11.542;2023-04-06T08:04:13;95829.25;;;7.90;41.53
73383;BME280;61600;48.126;11.542;2023-04-06T08:06:39;95828.00;;;8.18;40.76
73383;BME280;61600;48.126;11.542;2023-04-06T08:09:06;95828.38;;;8.37;40.13
73383;BME280;61600;48.126;11.542;2023-04-06T08:11:32;95822.66;;;8.38;39.73
73383;BME280;61600;48.126;11.542;2023-04-06T08:13:58;95830.28;;;8.36;39.50
73383;BME280;61600;48.126;11.542;2023-04-06T08:16:24;95831.91;;;8.42;39.47
73383;BME280;61600;48.126;11.542;2023-04-06T08:18:50;95826.41;;;8.27;39.21
73383;BME280;61600;48.126;11.542;2023-04-06T08:21:16;95829.78;;;8.65;38.54
73383;BME280;61600;48.126;11.542;2023-04-06T08:23:41;95824.94;;;8.72;38.31
73383;BME280;61600;48.126;11.542;2023-04-06T08:26:07;95826.03;;;8.86;37.77
73383;BME280;61600;48.126;11.542;2023-04-06T08:28:33;95819.25;;;8.93;37.12
73383;BME280;61600;48.126;11.542;2023-04-06T08:31:03;95827.09;;;8.85;37.13
73383;BME280;61600;48.126;11.542;2023-04-06T08:33:29;95828.47;;;8.82;35.86
73383;BME280;61600;48.126;11.542;2023-04-06T08:35:55;95831.44;;;8.91;35.19
73383;BME280;61600;48.126;11.542;2023-04-06T08:38:21;95830.34;;;8.77;36.24
73383;BME280;61600;48.126;11.542;2023-04-06T08:40:47;95832.22;;;8.76;35.73
73383;BME280;61600;48.126;11.542;2023-04-06T08:43:16;95834.44;;;8.89;36.30
73383;BME280;61600;48.126;11.542;2023-04-06T08:45:43;95820.06;;;8.79;36.49
73383;BME280;61600;48.126;11.542;2023-04-06T08:48:09;95825.75;;;8.77;36.51
73383;BME280;61600;48.126;11.542;2023-04-06T08:50:35;95818.44;;;8.88;36.72
73383;BME280;61600;48.126;11.542;2023-04-06T08:53:01;95822.78;;;8.99;36.73
73383;BME280;61600;48.126;11.542;2023-04-06T08:55:27;95806.25;;;9.00;36.98
73383;BME280;61600;48.126;11.542;2023-04-06T08:57:54;95821.44;;;9.17;36.78
73383;BME280;61600;48.126;11.542;2023-04-06T09:00:21;95822.25;;;9.17;36.73
73383;BME280;61600;48.126;11.542;2023-04-06T09:02:49;95819.81;;;9.00;36.05
73383;BME280;61600;48.126;11.542;2023-04-06T09:05:15;95817.88;;;9.01;35.67
73383;BME280;61600;48.126;11.542;2023-04-06T09:07:41;95824.41;;;8.85;36.00
73383;BME280;61600;48.126;11.542;2023-04-06T09:10:07;95820.34;;;8.82;36.18
73383;BME280;61600;48.126;11.542;2023-04-06T09:12:34;95826.03;;;9.16;35.95
73383;BME280;61600;48.126;11.542;2023-04-06T09:15:00;95816.78;;;9.32;35.57
73383;BME280;61600;48.126;11.542;2023-04-06T09:17:31;95819.78;;;9.46;35.95
73383;BME280;61600;48.126;11.542;2023-04-06T09:20:00;95816.56;;;9.29;34.64
73383;BME280;61600;48.126;11.542;2023-04-06T09:22:38;95813.84;;;9.29;34.26
73383;BME280;61600;48.126;11.542;2023-04-06T09:25:05;95814.63;;;9.29;34.57
73383;BME280;61600;48.126;11.542;2023-04-06T09:27:36;95817.59;;;9.48;34.31
73383;BME280;61600;48.126;11.542;2023-04-06T09:30:10;95815.41;;;9.60;34.50
73383;BME280;61600;48.126;11.542;2023-04-06T09:32:50;95807.19;;;9.85;34.20
73383;BME280;61600;48.126;11.542;2023-04-06T09:35:17;95813.63;;;10.10;33.99
73383;BME280;61600;48.126;11.542;2023-04-06T09:37:49;95807.94;;;10.16;33.74
73383;BME280;61600;48.126;11.542;2023-04-06T09:40:16;95812.75;;;10.29;33.70
73383;BME280;61600;48.126;11.542;2023-04-06T09:42:47;95798.38;;;10.24;33.50
73383;BME280;61600;48.126;11.542;2023-04-06T09:45:13;95794.44;;;10.45;33.37
73383;BME280;61600;48.126;11.542;2023-04-06T09:47:43;95787.91;;;10.51;33.28
73383;BME280;61600;48.126;11.542;2023-04-06T09:50:10;95794.03;;;10.72;33.14
73383;BME280;61600;48.126;11.542;2023-04-06T09:52:47;95798.09;;;10.74;32.32
73383;BME280;61600;48.126;11.542;2023-04-06T09:55:40;95799.88;;;10.50;32.72
73383;BME280;61600;48.126;11.542;2023-04-06T09:58:10;95801.31;;;10.32;32.85
73383;BME280;61600;48.126;11.542;2023-04-06T10:01:05;95803.28;;;10.22;32.98
73383;BME280;61600;48.126;11.542;2023-04-06T10:03:49;95803.34;;;9.96;33.21
73383;BME280;61600;48.126;11.542;2023-04-06T10:06:21;95802.50;;;10.16;32.85
73383;BME280;61600;48.126;11.542;2023-04-06T10:08:50;95789.06;;;10.40;32.67
73383;BME280;61600;48.126;11.542;2023-04-06T10:11:20;95785.44;;;10.49;32.29
73383;BME280;61600;48.126;11.542;2023-04-06T10:13:47;95782.56;;;10.80;31.92
73383;BME280;61600;48.126;11.542;2023-04-06T10:16:17;95784.63;;;10.93;31.68
73383;BME280;61600;48.126;11.542;2023-04-06T10:18:52;95794.84;;;11.11;31.51
73383;BME280;61600;48.126;11.542;2023-04-06T10:21:23;95774.19;;;11.34;31.26
73383;BME280;61600;48.126;11.542;2023-04-06T10:24:01;95776.03;;;11.15;31.35
73383;BME280;61600;48.126;11.542;2023-04-06T10:26:27;95778.19;;;11.46;31.18
73383;BME280;61600;48.126;11.542;2023-04-06T10:28:54;95775.72;;;11.45;31.09
73383;BME280;61600;48.126;11.542;2023-04-06T10:31:25;95780.66;;;11.43;31.42
73383;BME280;61600;48.126;11.542;2023-04-06T10:33:59;95785.63;;;11.02;31.58
73383;BME280;61600;48.126;11.542;2023-04-06T10:36:26;95778.28;;;11.02;31.63
73383;BME280;61600;48.126;11.542;2023-04-06T10:39:02;95771.09;;;10.83;31.86
73383;BME280;61600;48.126;11.542;2023-04-06T10:41:36;95770.84;;;10.79;32.12
73383;BME280;61600;48.126;11.542;2023-04-06T10:44:06;95769.97;;;10.84;32.38
73383;BME280;61600;48.126;11.542;2023-04-06T10:46:33;95776.09;;;11.33;31.32
73383;BME280;61600;48.126;11.542;2023-04-06T10:49:10;95771.75;;;11.61;31.08
73383;BME280;61600;48.126;11.542;2023-04-06T10:51:39;95765.69;;;11.93;30.51
73383;BME280;61600;48.126;11.542;2023-04-06T10:54:09;95767.22;;;11.51;30.45
73383;BME280;61600;48.126;11.542;2023-04-06T10:56:37;95769.31;;;11.88;30.18
73383;BME280;61600;48.126;11.542;2023-04-06T10:59:05;95767.03;;;11.95;30.00
73383;BME280;61600;48.126;11.542;2023-04-06T11:01:31;95757.13;;;11.81;30.11
73383;BME280;61600;48.126;11.542;2023-04-06T11:03:57;95756.88;;;12.43;29.32
73383;BME280;61600;48.126;11.542;2023-04-06T11:06:25;95748.38;;;12.82;29.22
73383;BME280;61600;48.126;11.542;2023-04-06T11:08:53;95743.91;;;12.54;28.87
73383;BME280;61600;48.126;11.542;2023-04-06T11:11:21;95737.84;;;12.76;29.42
73383;BME280;61600;48.126;11.542;2023-04-06T11:13:52;95750.41;;;12.58;29.22
73383;BME280;61600;48.126;11.542;2023-04-06T11:16:32;95743.63;;;13.25;29.09
73383;BME280;61600;48.126;11.542;2023-04-06T11:19:04;95725.53;;;13.29;28.56
73383;BME280;61600;48.126;11.542;2023-04-06T11:21:38;95721.19;;;13.42;28.16
73383;BME280;61600;48.126;11.542;2023-04-06T11:24:11;95722.88;;;13.24;28.85
73383;BME280;61600;48.126;11.542;2023-04-06T11:26:45;95723.66;;;12.92;28.99
73383;BME280;61600;48.126;11.542;2023-04-06T11:29:18;95713.97;;;13.00;28.43
73383;BME280;61600;48.126;11.542;2023-04-06T11:31:49;95712.75;;;13.25;28.52
73383;BME280;61600;48.126;11.542;2023-04-06T11:36:44;95713.63;;;13.52;27.86
73383;BME280;61600;48.126;11.542;2023-04-06T11:39:12;95705.34;;;13.12;28.33
73383;BME280;61600;48.126;11.542;2023-04-06T11:41:38;95714.88;;;12.95;28.56
73383;BME280;61600;48.126;11.542;2023-04-06T11:44:05;95718.50;;;13.23;28.58
73383;BME280;61600;48.126;11.542;2023-04-06T11:46:31;95710.88;;;13.52;28.65
73383;BME280;61600;48.126;11.542;2023-04-06T11:48:58;95709.13;;;13.29;28.41
73383;BME280;61600;48.126;11.542;2023-04-06T11:51:26;95706.28;;;13.21;28.11
73383;BME280;61600;48.126;11.542;2023-04-06T11:53:55;95715.47;;;12.74;28.87
73383;BME280;61600;48.126;11.542;2023-04-06T11:56:29;95711.31;;;12.95;28.08
73383;BME280;61600;48.126;11.542;2023-04-06T11:59:01;95703.94;;;13.14;28.14
73383;BME280;61600;48.126;11.542;2023-04-06T12:01:27;95692.75;;;13.43;27.88
73383;BME280;61600;48.126;11.542;2023-04-06T12:03:53;95701.59;;;13.54;28.47
73383;BME280;61600;48.126;11.542;2023-04-06T12:06:19;95698.25;;;13.11;28.86
73383;BME280;61600;48.126;11.542;2023-04-06T12:08:45;95699.72;;;13.22;28.83
73383;BME280;61600;48.126;11.542;2023-04-06T12:11:14;95699.25;;;13.61;28.18
73383;BME280;61600;48.126;11.542;2023-04-06T12:13:40;95692.78;;;13.70;27.88
73383;BME280;61600;48.126;11.542;2023-04-06T12:16:06;95695.41;;;14.02;27.20
73383;BME280;61600;48.126;11.542;2023-04-06T12:18:32;95695.38;;;14.16;26.34
73383;BME280;61600;48.126;11.542;2023-04-06T12:20:58;95695.00;;;13.68;26.88
73383;BME280;61600;48.126;11.542;2023-04-06T12:23:24;95698.44;;;13.87;27.01
73383;BME280;61600;48.126;11.542;2023-04-06T12:25:50;95691.25;;;13.50;27.15
73383;BME280;61600;48.126;11.542;2023-04-06T12:28:17;95692.56;;;13.94;26.99
73383;BME280;61600;48.126;11.542;2023-04-06T12:30:43;95687.47;;;14.28;26.49
73383;BME280;61600;48.126;11.542;2023-04-06T12:33:08;95676.41;;;14.69;26.19
73383;BME280;61600;48.126;11.542;2023-04-06T12:35:34;95672.72;;;14.96;25.54
73383;BME280;61600;48.126;11.542;2023-04-06T12:38:00;95668.34;;;15.17;25.37
73383;BME280;61600;48.126;11.542;2023-04-06T12:40:26;95665.50;;;15.53;25.32
73383;BME280;61600;48.126;11.542;2023-04-06T12:42:52;95667.16;;;15.32;24.35
73383;BME280;61600;48.126;11.542;2023-04-06T12:45:18;95663.50;;;15.14;24.18
73383;BME280;61600;48.126;11.542;2023-04-06T12:47:44;95658.03;;;15.14;24.54
73383;BME280;61600;48.126;11.542;2023-04-06T12:50:10;95655.00;;;15.16;24.35
73383;BME280;61600;48.126;11.542;2023-04-06T12:52:37;95657.47;;;15.04;24.76
73383;BME280;61600;48.126;11.542;2023-04-06T12:55:03;95668.88;;;15.19;24.59
73383;BME280;61600;48.126;11.542;2023-04-06T12:57:30;95654.38;;;14.74;25.04
73383;BME280;61600;48.126;11.542;2023-04-06T12:59:57;95659.59;;;14.62;25.72